Time;durP1;ratioP1;P1;durP2;ratioP2;P2;SDS_P1;SDS_P2;PMS_P1;PMS_P2;Temp;Humidity;BMP_temperature;BMP_pressure;BME280_temperature;BME280_humidity;BME280_pressure;Samples;Min_cycle;Max_cycle;Signal;HPM_P1;HPM_P2
2021/12/12 00:02:45;;;;;;;9.00;5.10;;;3.00;99.90;;;3.30;68.42;98413.91;5007348;28;20332;-38
2021/12/12 00:05:20;;;;;;;10.33;4.83;;;3.00;99.90;;;3.35;68.27;98418.88;5006418;28;20045;-38
2021/12/12 00:07:49;;;;;;;5.70;3.80;;;3.10;99.90;;;3.37;68.19;98430.16;5006800;28;20061;-38
2021/12/12 00:10:23;;;;;;;7.90;4.60;;;3.10;99.90;;;3.35;68.16;98425.00;5006961;28;20363;-38
2021/12/12 00:13:03;;;;;;;7.13;4.63;;;3.10;99.90;;;3.35;68.26;98429.41;5007162;28;20247;-38
2021/12/12 00:15:31;;;;;;;5.90;4.00;;;3.10;99.90;;;3.37;68.30;98431.94;5006255;28;20050;-38
2021/12/12 00:17:59;;;;;;;8.90;3.87;;;3.10;99.90;;;3.34;67.99;98423.31;5006508;28;20050;-38
2021/12/12 00:20:30;;;;;;;8.30;4.30;;;3.10;99.90;;;3.30;67.48;98420.97;5007088;28;20050;-38
2021/12/12 00:22:59;;;;;;;9.63;3.80;;;3.10;99.90;;;3.32;68.16;98430.47;5007891;28;20348;-38
2021/12/12 00:25:33;;;;;;;8.03;3.67;;;3.10;99.90;;;3.31;68.08;98436.66;5006103;28;20060;-38
2021/12/12 00:28:03;;;;;;;6.30;3.57;;;3.10;99.90;;;3.29;68.24;98441.16;5006933;28;20056;-38
2021/12/12 00:30:32;;;;;;;7.83;3.60;;;3.00;99.90;;;3.28;67.92;98457.06;5007317;28;20050;-38
2021/12/12 00:33:02;;;;;;;6.67;3.63;;;3.00;99.90;;;3.28;67.54;98450.03;5007667;28;20052;-38
2021/12/12 00:35:31;;;;;;;6.03;3.60;;;3.00;99.90;;;3.25;67.78;98446.72;5006409;28;20070;-38
2021/12/12 00:38:07;;;;;;;6.70;3.60;;;3.00;99.80;;;3.26;68.02;98448.44;5005999;28;20057;-38
2021/12/12 00:40:40;;;;;;;6.40;3.00;;;3.00;99.80;;;3.26;67.46;98448.44;5006628;28;20336;-38
2021/12/12 00:43:27;;;;;;;6.65;4.47;;;3.00;99.70;;;3.23;67.42;98454.72;5006657;28;20056;-38
2021/12/12 00:45:59;;;;;;;7.07;3.40;;;3.00;99.20;;;3.25;68.13;98457.25;5035288;28;20053;-38
2021/12/12 00:48:30;;;;;;;10.90;3.60;;;2.90;99.90;;;3.28;67.80;98455.28;5007338;28;20038;-38
2021/12/12 00:51:03;;;;;;;5.30;2.73;;;3.00;99.60;;;3.30;67.97;98460.47;5007339;28;20048;-38
2021/12/12 00:53:32;;;;;;;8.32;4.03;;;3.00;99.80;;;3.30;67.87;98463.09;5006432;28;20360;-38
2021/12/12 00:56:00;;;;;;;5.10;3.47;;;3.00;99.60;;;3.30;67.80;98463.94;5005887;28;20362;-38
2021/12/12 00:58:28;;;;;;;5.20;3.60;;;3.00;99.30;;;3.34;67.46;98459.31;5005418;28;20062;-38
2021/12/12 01:01:12;;;;;;;5.10;3.13;;;3.10;99.60;;;3.38;67.97;98462.63;5006690;28;20364;-38
2021/12/12 01:03:55;;;;;;;7.47;3.08;;;3.10;99.10;;;3.39;67.65;98465.13;5008451;28;20065;-38
2021/12/12 01:06:25;;;;;;;11.17;3.77;;;3.10;99.20;;;3.40;67.82;98468.63;5008571;28;20050;-38
2021/12/12 01:08:57;;;;;;;4.00;2.63;;;3.20;99.10;;;3.43;67.35;98473.69;5009078;28;20061;-38
2021/12/12 01:11:35;;;;;;;4.53;3.00;;;3.20;99.60;;;3.42;67.33;98475.47;5010766;28;20352;-38
2021/12/12 01:14:09;;;;;;;6.80;2.87;;;3.20;98.60;;;3.43;67.29;98481.56;5009666;28;20046;-38
2021/12/12 01:16:59;;;;;;;3.85;3.03;;;3.20;98.80;;;3.43;66.99;98484.22;5009099;28;20056;-38
2021/12/12 01:19:55;;;;;;;5.73;3.30;;;3.20;97.80;;;3.43;66.30;98486.84;5010970;28;20232;-38
2021/12/12 01:22:34;;;;;;;6.73;3.33;;;3.30;97.80;;;3.48;67.27;98490.03;5008973;28;20068;-38
2021/12/12 01:25:32;;;;;;;5.83;2.80;;;3.20;98.00;;;3.44;65.56;98492.00;5009556;28;20450;-38
2021/12/12 01:28:00;;;;;;;7.70;3.93;;;3.30;96.70;;;3.47;66.85;98494.47;5010045;28;20057;-38
2021/12/12 01:30:30;;;;;;;3.80;2.60;;;3.30;97.50;;;3.48;66.84;98487.41;5009580;28;20058;-38
2021/12/12 01:32:58;;;;;;;3.80;2.80;;;3.30;97.80;;;3.49;66.71;98481.19;5010162;28;20404;-38
2021/12/12 01:35:26;;;;;;;5.23;2.90;;;3.30;97.20;;;3.50;67.01;98489.00;5010458;28;20656;-38
2021/12/12 01:40:52;;;;;;;4.80;3.40;;;3.30;96.70;;;3.51;66.85;98488.06;5009514;28;20052;-38
2021/12/12 01:43:27;;;;;;;5.27;3.03;;;3.30;97.10;;;3.55;66.30;98491.34;5009524;28;20052;-38
2021/12/12 01:46:05;;;;;;;5.80;2.93;;;3.40;97.20;;;3.58;66.79;98495.56;5040989;28;20259;-38
2021/12/12 01:49:09;;;;;;;4.77;3.13;;;3.40;97.00;;;3.57;65.72;98494.75;5038873;28;20060;-38
2021/12/12 01:51:38;;;;;;;4.93;2.60;;;3.40;96.00;;;3.60;66.59;98498.97;5005549;28;20054;-38
2021/12/12 01:54:09;;;;;;;7.27;2.70;;;3.40;96.50;;;3.64;66.79;98497.81;5009459;28;20046;-38
2021/12/12 01:56:50;;;;;;;5.73;2.80;;;3.50;96.60;;;3.67;66.12;98500.28;5008763;28;20060;-38
2021/12/12 01:59:24;;;;;;;8.20;2.97;;;3.50;96.30;;;3.69;66.80;98504.50;5010313;28;20073;-38
2021/12/12 02:02:10;;;;;;;5.40;2.87;;;3.40;96.30;;;3.70;66.62;98492.16;5008992;28;20053;-38
2021/12/12 02:04:46;;;;;;;4.43;2.73;;;3.40;95.90;;;3.70;66.25;98494.78;5008536;28;20382;-38
2021/12/12 02:07:21;;;;;;;5.33;2.67;;;3.40;96.60;;;3.72;66.75;98492.91;5008272;28;20048;-38
2021/12/12 02:09:49;;;;;;;4.30;2.43;;;3.40;96.20;;;3.70;65.92;98495.66;5009055;28;20054;-38
2021/12/12 02:12:23;;;;;;;6.77;2.87;;;3.40;96.00;;;3.71;66.24;98496.50;5040030;28;20075;-38
2021/12/12 02:14:52;;;;;;;5.57;2.95;;;3.50;96.10;;;3.73;65.64;98499.88;5008521;28;20064;-38
2021/12/12 02:17:38;;;;;;;6.87;3.93;;;3.50;96.00;;;3.76;66.37;98502.28;5009497;28;20255;-38
2021/12/12 02:20:21;;;;;;;5.50;2.53;;;3.50;95.20;;;3.75;65.83;98519.06;5009056;28;20054;-38
2021/12/12 02:36:34;;;;;;;4.90;2.20;;;3.50;94.00;;;3.70;64.20;98522.00;5008437;28;20363;-38
2021/12/12 02:39:15;;;;;;;3.40;2.13;;;3.50;92.10;;;3.66;63.58;98525.75;5007395;28;20045;-38
2021/12/12 02:42:02;;;;;;;3.77;1.77;;;3.40;91.70;;;3.65;64.45;98529.31;5008141;28;20061;-38
2021/12/12 02:44:32;;;;;;;3.40;2.20;;;3.40;91.80;;;3.65;64.84;98515.31;5008517;28;20057;-38
2021/12/12 02:47:10;;;;;;;8.67;2.83;;;3.40;92.40;;;3.68;64.77;98504.56;5007115;28;20057;-38
2021/12/12 02:52:30;;;;;;;5.93;2.10;;;3.40;92.20;;;3.70;64.80;98515.84;5008791;28;20046;-38
2021/12/12 02:55:03;;;;;;;4.53;1.93;;;3.40;93.10;;;3.71;64.64;98509.66;5008383;28;20366;-38
2021/12/12 02:57:31;;;;;;;10.63;2.70;;;3.40;93.70;;;3.70;64.83;98506.19;5008617;28;20058;-38
2021/12/12 02:59:59;;;;;;;4.53;2.37;;;3.30;93.20;;;3.67;64.79;98501.09;5007952;28;20087;-38
2021/12/12 03:02:33;;;;;;;7.03;2.60;;;3.30;93.60;;;3.65;64.40;98499.53;5007628;28;20060;-38
2021/12/12 03:05:05;;;;;;;4.43;2.30;;;3.20;93.50;;;3.60;64.79;98501.59;5007808;28;20344;-38
2021/12/12 03:07:33;;;;;;;2.40;1.80;;;3.20;93.70;;;3.56;64.67;98503.56;5007350;28;20068;-38
2021/12/12 03:10:03;;;;;;;7.60;2.17;;;3.10;93.80;;;3.52;64.58;98500.28;5008249;28;20056;-38
2021/12/12 03:12:36;;;;;;;4.80;2.10;;;3.10;94.20;;;3.52;64.76;98509.97;5007721;28;20054;-38
2021/12/12 03:15:14;;;;;;;5.70;1.80;;;3.10;93.50;;;3.54;64.45;98513.34;5007848;28;20549;-38
2021/12/12 03:17:44;;;;;;;3.13;1.70;;;3.20;92.90;;;3.52;64.01;98508.19;5007394;28;20060;-38
2021/12/12 03:20:26;;;;;;;2.43;1.97;;;3.10;92.70;;;3.51;64.10;98503.88;5008687;28;20375;-38
2021/12/12 03:23:03;;;;;;;4.60;1.90;;;3.10;92.40;;;3.50;63.71;98506.59;5008654;28;20274;-38
2021/12/12 03:25:38;;;;;;;4.47;1.70;;;3.10;91.50;;;3.48;64.03;98503.22;5006231;28;20068;-38
2021/12/12 03:28:09;;;;;;;4.07;1.80;;;3.10;91.10;;;3.43;63.79;98500.00;5008221;28;20068;-38
2021/12/12 03:30:38;;;;;;;5.00;2.10;;;2.90;91.30;;;3.38;63.99;98505.56;5007684;28;20061;-38
2021/12/12 03:33:07;;;;;;;3.40;1.87;;;2.90;91.90;;;3.35;63.97;98498.72;5007112;28;20045;-38
2021/12/12 03:35:36;;;;;;;5.43;2.13;;;2.90;91.90;;;3.34;63.95;98504.06;5008829;28;20053;-38
2021/12/12 03:38:06;;;;;;;9.17;2.20;;;2.80;91.90;;;3.31;63.66;98501.63;5007334;28;20049;-38
2021/12/12 03:40:39;;;;;;;7.23;2.20;;;2.80;91.60;;;3.23;63.67;98496.81;5006695;28;20046;-38
2021/12/12 03:43:09;;;;;;;3.27;2.10;;;2.70;91.90;;;3.20;63.47;98498.78;5007326;28;20061;-38
2021/12/12 03:45:38;;;;;;;5.13;1.77;;;2.70;92.50;;;3.17;63.96;98493.72;5006161;28;20056;-38
2021/12/12 03:48:29;;;;;;;3.67;1.70;;;2.60;92.10;;;3.10;63.92;98486.22;5007306;28;20057;-38
2021/12/12 03:51:02;;;;;;;3.90;1.90;;;2.60;92.80;;;3.08;63.89;98484.59;5005976;28;20057;-38
2021/12/12 03:53:35;;;;;;;3.75;1.77;;;2.50;92.30;;;3.05;63.78;98482.19;5004460;28;20054;-38
2021/12/12 03:56:05;;;;;;;4.57;1.90;;;2.50;92.80;;;3.04;63.97;98485.72;5006242;28;20054;-38
2021/12/12 03:58:33;;;;;;;3.83;2.03;;;2.50;92.80;;;3.02;63.61;98495.50;5007265;28;20057;-38
2021/12/12 04:01:16;;;;;;;3.90;2.13;;;2.50;92.40;;;2.97;63.82;98485.28;5006847;28;20239;-38
2021/12/12 04:03:46;;;;;;;4.37;1.90;;;2.50;93.00;;;2.95;63.95;98485.34;5006103;28;20280;-38
2021/12/12 04:06:20;;;;;;;4.67;2.70;;;2.50;92.80;;;2.96;64.02;98491.47;5005776;28;20068;-38
2021/12/12 04:08:50;;;;;;;;;;;2.50;92.80;;;2.90;64.01;98484.78;5006493;28;20060;-38
2021/12/12 04:11:41;;;;;;;6.20;2.97;;;2.50;91.60;;;2.92;63.59;98492.59;5007348;28;19923;-38
2021/12/12 04:14:10;;;;;;;3.67;2.00;;;2.50;92.30;;;2.92;64.02;98482.91;5006189;28;20049;-38
2021/12/12 04:16:48;;;;;;;2.70;1.60;;;2.50;92.60;;;2.92;64.09;98487.31;5006723;28;20332;-38
2021/12/12 04:19:16;;;;;;;4.53;1.87;;;2.50;92.50;;;2.91;64.13;98486.47;5007624;28;20373;-38
2021/12/12 04:21:45;;;;;;;3.43;1.80;;;2.50;92.30;;;2.92;64.06;98490.78;5006295;28;20340;-38
2021/12/12 04:24:20;;;;;;;5.53;2.40;;;2.50;92.20;;;2.91;63.91;98490.91;5006467;28;20062;-38
2021/12/12 04:26:49;;;;;;;4.07;2.20;;;2.50;92.10;;;2.90;64.14;98499.72;5006173;28;20057;-38
2021/12/12 04:29:25;;;;;;;3.03;2.10;;;2.50;92.60;;;2.91;63.85;98498.78;5006292;28;20060;-38
2021/12/12 04:32:00;;;;;;;4.07;2.50;;;2.50;92.10;;;2.89;64.23;98498.88;5006754;28;20050;-38
2021/12/12 04:34:32;;;;;;;4.53;2.37;;;2.50;92.30;;;2.91;64.14;98506.69;5006303;28;20582;-38
2021/12/12 04:37:01;;;;;;;3.97;2.10;;;2.50;92.40;;;2.91;64.06;98514.59;5007354;28;20049;-38
2021/12/12 04:39:35;;;;;;;3.77;2.33;;;2.50;92.80;;;2.90;64.10;98505.81;5011260;28;20060;-38
2021/12/12 04:42:10;;;;;;;4.63;3.00;;;2.50;92.70;;;2.91;63.48;98512.78;5009552;28;20061;-38
2021/12/12 04:44:40;;;;;;;4.97;2.80;;;2.50;92.70;;;2.92;64.09;98518.88;5011174;28;20050;-38
2021/12/12 04:50:44;;;;;;;6.80;3.07;;;2.50;92.50;;;2.89;64.24;98526.94;5011156;28;20244;-38
2021/12/12 04:53:36;;;;;;;3.93;2.67;;;2.50;92.50;;;2.86;64.10;98527.16;5007820;28;20356;-38
2021/12/12 04:56:28;;;;;;;4.10;2.93;;;2.40;93.50;;;2.82;63.82;98523.84;5009238;28;20057;-38
2021/12/12 04:59:33;;;;;;;5.47;3.10;;;2.40;93.30;;;2.81;64.32;98527.44;5008761;28;20501;-38
2021/12/12 05:02:31;;;;;;;4.47;3.07;;;2.40;93.60;;;2.76;64.11;98527.69;5010697;28;20344;-38
2021/12/12 05:05:11;;;;;;;4.50;3.00;;;2.30;94.20;;;2.75;64.53;98533.03;5007119;28;20064;-38
2021/12/12 05:08:10;;;;;;;4.57;2.67;;;2.30;94.20;;;2.73;64.31;98524.38;5009133;28;20050;-38
2021/12/12 05:10:46;;;;;;;5.10;2.40;;;2.30;94.50;;;2.72;64.48;98528.81;5011080;28;20048;-38
2021/12/12 05:13:36;;;;;;;3.80;2.27;;;2.30;94.70;;;2.73;64.12;98530.50;5008121;28;20356;-38
2021/12/12 05:16:31;;;;;;;4.10;2.97;;;2.40;94.30;;;2.72;64.44;98541.13;5007981;28;20355;-39
2021/12/12 05:19:14;;;;;;;4.20;2.67;;;2.30;94.50;;;2.70;64.55;98524.59;5008643;28;20054;-38
2021/12/12 05:21:53;;;;;;;3.87;2.80;;;2.30;94.20;;;2.70;64.72;98525.44;5009863;28;20061;-38
2021/12/12 05:24:25;;;;;;;2.87;2.20;;;2.30;94.60;;;2.68;64.68;98523.84;5009770;28;20057;-38
2021/12/12 05:27:05;;;;;;;5.63;2.33;;;2.20;94.30;;;2.63;64.62;98521.44;5008487;28;20092;-38
2021/12/12 05:29:48;;;;;;;5.00;2.80;;;2.20;94.30;;;2.64;64.68;98527.59;5008934;28;20058;-38
2021/12/12 05:32:19;;;;;;;4.47;2.37;;;2.30;94.70;;;2.61;64.38;98539.09;5007716;28;20072;-38
2021/12/12 05:34:51;;;;;;;3.83;2.70;;;2.30;94.50;;;2.63;64.89;98529.34;5008599;28;20053;-38
2021/12/12 05:37:20;;;;;;;4.70;2.70;;;2.30;94.80;;;2.63;65.01;98526.72;5009609;28;20049;-38
2021/12/12 05:39:49;;;;;;;5.77;2.53;;;2.30;94.60;;;2.63;65.17;98525.88;5009571;28;20045;-38
2021/12/12 05:42:19;;;;;;;3.07;2.27;;;2.30;94.60;;;2.63;65.05;98531.13;5009160;28;20058;-38
2021/12/12 05:44:48;;;;;;;4.93;2.83;;;2.40;94.50;;;2.63;64.85;98531.97;5008917;28;20356;-38
2021/12/12 05:47:17;;;;;;;4.30;2.33;;;2.30;94.30;;;2.62;64.97;98538.19;5007082;28;20057;-38
2021/12/12 05:49:45;;;;;;;3.97;2.33;;;2.40;94.50;;;2.60;64.98;98529.53;5008589;28;20053;-38
2021/12/12 05:52:17;;;;;;;4.33;2.57;;;2.40;94.20;;;2.57;64.80;98529.69;5008584;28;20050;-38
2021/12/12 05:54:47;;;;;;;7.30;3.37;;;2.40;94.30;;;2.59;64.85;98529.63;5009068;28;20068;-38
2021/12/12 05:57:22;;;;;;;4.70;2.40;;;2.30;94.00;;;2.58;64.91;98531.41;5009735;28;20052;-38
2021/12/12 05:59:53;;;;;;;3.63;2.23;;;2.30;94.60;;;2.61;64.66;98535.63;5009717;28;20053;-38
2021/12/12 06:02:23;;;;;;;5.43;2.50;;;2.30;94.30;;;2.55;64.72;98532.41;5007899;28;20058;-38
2021/12/12 06:04:56;;;;;;;4.00;2.97;;;2.30;94.20;;;2.58;64.74;98536.66;5008119;28;20060;-38
2021/12/12 06:07:25;;;;;;;3.77;2.73;;;2.30;94.20;;;2.56;65.23;98534.13;5007800;28;20050;-38
2021/12/12 06:09:54;;;;;;;5.67;2.80;;;2.30;94.40;;;2.53;64.87;98536.06;5009729;28;20060;-38
2021/12/12 06:12:23;;;;;;;5.30;2.80;;;2.30;94.20;;;2.51;64.89;98537.94;5006852;28;20054;-38
2021/12/12 06:14:52;;;;;;;5.43;2.87;;;2.30;94.00;;;2.48;64.99;98540.75;5008863;28;20049;-38
2021/12/12 06:17:22;;;;;;;5.97;3.10;;;2.20;94.40;;;2.44;65.04;98550.59;5007442;28;20073;-38
2021/12/12 06:19:50;;;;;;;4.90;2.57;;;2.10;94.60;;;2.46;64.97;98551.38;5008746;28;20271;-38
2021/12/12 06:22:18;;;;;;;4.07;2.27;;;2.10;94.90;;;2.44;65.41;98557.63;5007333;28;20385;-38
2021/12/12 06:24:48;;;;;;;5.07;2.60;;;2.10;95.30;;;2.46;65.07;98561.00;5006772;28;20425;-38
2021/12/12 06:27:18;;;;;;;4.10;2.33;;;2.10;95.60;;;2.47;65.25;98560.09;5008046;28;20076;-38
2021/12/12 06:29:51;;;;;;;5.53;2.73;;;2.10;95.20;;;2.47;65.24;98560.09;5009623;28;20046;-38
2021/12/12 06:32:20;;;;;;;6.10;3.10;;;2.20;95.40;;;2.49;65.25;98569.56;5008466;28;20072;-38
2021/12/12 06:34:50;;;;;;;5.40;2.53;;;2.20;95.20;;;2.51;65.24;98564.25;5008683;28;20569;-38
2021/12/12 06:37:19;;;;;;;4.97;3.27;;;2.20;95.00;;;2.46;65.26;98572.41;5007921;28;20064;-38
2021/12/12 06:39:47;;;;;;;3.93;2.60;;;2.20;95.00;;;2.47;64.86;98568.81;5006968;28;20374;-38
2021/12/12 06:42:16;;;;;;;4.27;2.63;;;2.20;95.10;;;2.47;65.43;98570.63;5007310;28;20045;-38
2021/12/12 06:44:44;;;;;;;5.33;2.80;;;2.10;95.10;;;2.45;65.08;98578.56;5006319;28;20370;-38
2021/12/12 06:47:15;;;;;;;4.63;2.67;;;2.10;95.20;;;2.45;65.42;98578.56;5007331;28;20269;-38
2021/12/12 06:49:44;;;;;;;10.13;4.63;;;2.20;95.50;;;2.49;65.33;98571.38;5009235;28;20061;-38
2021/12/12 06:52:14;;;;;;;17.27;8.10;;;2.20;94.90;;;2.52;65.30;98579.06;5007797;28;20056;-38
2021/12/12 06:54:43;;;;;;;12.13;5.63;;;2.20;95.00;;;2.52;65.33;98585.19;5008016;28;20060;-38
2021/12/12 06:57:15;;;;;;;13.07;6.20;;;2.20;95.20;;;2.53;65.34;98581.59;5008527;28;20340;-38
2021/12/12 06:59:45;;;;;;;7.13;4.10;;;2.20;95.20;;;2.56;65.32;98586.69;5007496;28;20046;-38
2021/12/12 07:02:13;;;;;;;5.03;3.20;;;2.20;95.20;;;2.55;65.27;98581.53;5007721;28;20056;-38
2021/12/12 07:04:44;;;;;;;5.07;3.27;;;2.20;95.20;;;2.56;65.27;98580.59;5005857;28;20038;-38
2021/12/12 07:07:15;;;;;;;5.00;3.03;;;2.20;95.10;;;2.58;65.44;98581.38;5008744;28;20050;-38
2021/12/12 07:09:46;;;;;;;4.60;2.43;;;2.20;95.50;;;2.57;65.77;98590.16;5008251;28;20295;-38
2021/12/12 07:12:22;;;;;;;7.17;3.23;;;2.20;95.20;;;2.58;65.37;98585.75;5006704;28;20048;-38
2021/12/12 07:14:53;;;;;;;4.97;2.90;;;2.20;95.90;;;2.57;65.32;98579.66;5007755;28;20046;-38
2021/12/12 07:17:23;;;;;;;5.10;2.83;;;2.20;95.70;;;2.59;65.59;98583.03;5007562;28;20058;-38
2021/12/12 07:19:52;;;;;;;4.13;2.50;;;2.20;96.00;;;2.60;65.54;98589.13;5008677;28;20056;-38
2021/12/12 07:22:21;;;;;;;4.63;3.17;;;2.30;95.60;;;2.59;65.40;98588.31;5006185;28;20050;-38
2021/12/12 07:24:50;;;;;;;6.10;3.37;;;2.20;96.20;;;2.58;65.43;98585.75;5006468;28;20107;-38
2021/12/12 07:27:18;;;;;;;5.70;3.37;;;2.20;96.30;;;2.56;65.11;98588.50;5007454;28;20057;-38
2021/12/12 07:29:46;;;;;;;5.23;3.37;;;2.20;96.20;;;2.56;65.71;98594.59;5008377;28;20726;-38
2021/12/12 07:32:15;;;;;;;5.33;3.23;;;2.20;96.40;;;2.56;65.73;98593.75;5008021;28;20050;-38
2021/12/12 07:34:44;;;;;;;8.67;3.57;;;2.20;96.50;;;2.54;65.70;98593.00;5006699;28;20053;-38
2021/12/12 07:37:12;;;;;;;7.23;3.60;;;2.20;96.70;;;2.53;65.65;98599.16;5005260;28;20046;-38
2021/12/12 07:39:43;;;;;;;5.10;3.30;;;2.30;96.50;;;2.53;65.73;98592.13;5006042;28;20042;-39
2021/12/12 07:42:13;;;;;;;8.33;3.67;;;2.20;96.30;;;2.54;65.53;98590.38;5007987;28;20053;-39
2021/12/12 07:44:43;;;;;;;5.40;2.87;;;2.20;96.30;;;2.46;66.05;98595.19;5006867;28;20087;-39
2021/12/12 07:47:17;;;;;;;5.57;3.50;;;2.30;96.30;;;2.50;66.11;98596.69;5006821;28;20335;-39
2021/12/12 07:49:49;;;;;;;6.07;3.22;;;2.30;96.10;;;2.52;66.08;98592.19;5008765;28;20351;-39
2021/12/12 07:52:23;;;;;;;5.13;2.97;;;2.30;96.30;;;2.51;66.14;98594.00;5004979;28;20038;-39
2021/12/12 07:54:54;;;;;;;5.87;3.70;;;2.30;96.60;;;2.51;65.50;98580.00;5006843;28;20080;-39
2021/12/12 07:57:26;;;;;;;5.10;3.13;;;2.20;96.50;;;2.54;66.29;98588.56;5006883;28;20059;-39
2021/12/12 07:59:55;;;;;;;6.90;3.57;;;2.20;96.50;;;2.55;66.15;98587.63;5006070;28;20073;-39
2021/12/12 08:02:24;;;;;;;7.73;3.97;;;2.30;96.90;;;2.56;66.32;98589.34;5005738;28;20084;-39
2021/12/12 08:04:55;;;;;;;5.50;3.70;;;2.30;96.60;;;2.57;66.34;98595.44;5006421;28;20362;-39
2021/12/12 08:07:24;;;;;;;5.30;3.20;;;2.30;96.80;;;2.53;66.38;98592.13;5005780;28;20058;-39
2021/12/12 08:09:53;;;;;;;6.20;4.13;;;2.30;96.70;;;2.54;66.35;98587.72;5006524;28;20053;-39
2021/12/12 08:12:27;;;;;;;6.50;4.20;;;2.30;97.10;;;2.56;66.27;98591.97;5004370;28;20054;-39
2021/12/12 08:14:56;;;;;;;5.97;3.97;;;2.30;97.40;;;2.58;66.39;98594.50;5005911;28;20049;-39
2021/12/12 08:17:25;;;;;;;7.23;4.10;;;2.30;97.20;;;2.59;66.37;98588.31;5005820;28;20053;-39
2021/12/12 08:19:58;;;;;;;5.87;4.23;;;2.30;97.80;;;2.60;66.43;98586.50;5004853;28;20038;-39
2021/12/12 08:22:28;;;;;;;6.50;3.92;;;2.40;97.20;;;2.59;66.55;98583.03;5005165;28;20058;-39
2021/12/12 08:25:01;;;;;;;6.00;4.23;;;2.30;97.10;;;2.59;66.71;98588.31;5004173;28;20276;-39
2021/12/12 08:27:29;;;;;;;9.00;5.30;;;2.40;97.20;;;2.60;66.40;98583.88;5005220;28;20062;-39
2021/12/12 08:29:59;;;;;;;12.93;7.13;;;2.40;97.00;;;2.64;66.32;98588.88;5005936;28;20068;-39
2021/12/12 08:32:28;;;;;;;13.20;6.73;;;2.40;96.50;;;2.65;66.32;98584.47;5006174;28;20061;-39
2021/12/12 08:35:11;;;;;;;6.47;4.27;;;2.40;96.40;;;2.66;66.15;98599.31;5004261;28;20068;-39
2021/12/12 08:37:42;;;;;;;5.60;3.63;;;2.40;96.40;;;2.70;66.41;98604.31;5005548;28;20050;-39
2021/12/12 08:40:15;;;;;;;10.13;3.53;;;2.50;96.60;;;2.66;66.51;98599.31;5006712;28;20065;-39
2021/12/12 08:42:43;;;;;;;5.97;4.00;;;2.50;96.10;;;2.73;66.67;98603.28;5006107;28;20057;-39
2021/12/12 08:45:15;;;;;;;6.03;3.63;;;2.50;96.10;;;2.75;66.40;98591.75;5004777;28;20058;-39
2021/12/12 08:47:44;;;;;;;12.63;6.20;;;2.60;95.90;;;2.75;66.41;98606.66;5006171;28;20225;-39
2021/12/12 08:50:21;;;;;;;5.60;3.47;;;2.50;95.60;;;2.74;66.09;98612.88;5005304;28;20050;-39
2021/12/12 08:52:51;;;;;;;6.97;4.73;;;2.60;95.50;;;2.80;66.06;98611.69;5004864;28;20049;-39
2021/12/12 08:55:32;;;;;;;9.33;6.57;;;2.60;95.50;;;2.85;66.19;98615.72;5005435;28;20042;-39
2021/12/12 08:58:17;;;;;;;6.03;3.40;;;2.60;95.50;;;2.90;66.25;98610.19;5005960;28;20076;-39
2021/12/12 09:01:12;;;;;;;6.33;5.07;;;2.70;95.00;;;2.90;65.31;98611.03;5023943;28;20049;-39
2021/12/12 09:04:01;;;;;;;8.50;4.87;;;2.70;94.20;;;2.91;66.15;98609.28;5028025;28;20052;-39
2021/12/12 09:07:17;;;;;;;6.77;4.53;;;2.70;93.80;;;2.98;66.06;98615.00;5030742;28;20061;-39
2021/12/12 09:10:06;;;;;;;5.80;5.07;;;2.80;94.80;;;3.05;65.72;98619.81;5036116;28;20060;-39
2021/12/12 09:12:43;;;;;;;5.07;3.63;;;2.90;94.00;;;3.04;65.30;98625.16;5034160;28;20059;-39
2021/12/12 09:15:27;;;;;;;5.20;3.30;;;2.90;93.70;;;3.12;64.81;98622.94;5028276;28;20052;-39
2021/12/12 09:18:24;;;;;;;;;;;3.00;93.00;;;3.11;65.40;98623.88;5033008;28;20048;-39
2021/12/12 09:21:24;;;;;;;41.07;19.97;;;3.00;92.40;;;3.18;65.28;98613.81;5030612;28;19925;-39
2021/12/12 09:24:10;;;;;;;7.90;4.77;;;3.10;91.80;;;3.23;64.66;98617.03;5045303;28;20053;-39
2021/12/12 09:26:50;;;;;;;4.60;3.37;;;3.10;92.60;;;3.26;65.22;98611.59;5048761;28;20041;-39
2021/12/12 09:29:40;;;;;;;6.97;3.70;;;3.20;92.30;;;3.29;65.21;98621.94;5047631;28;20061;-39
2021/12/12 09:32:23;;;;;;;8.23;3.50;;;3.20;91.70;;;3.31;64.72;98620.91;5049015;28;20365;-39
2021/12/12 09:35:23;;;;;;;5.95;4.20;;;3.30;90.50;;;3.34;64.23;98620.72;5047352;28;20051;-39
2021/12/12 09:38:25;;;;;;;6.93;3.90;;;3.30;91.00;;;3.41;65.01;98622.97;5047202;28;20061;-39
2021/12/12 09:41:23;;;;;;;6.73;3.20;;;3.30;90.10;;;3.44;64.20;98617.53;5047630;28;20049;-39
2021/12/12 09:44:50;;;;;;;5.03;2.70;;;3.40;91.20;;;3.48;64.62;98614.63;5049588;28;20346;-39
2021/12/12 09:47:59;;;;;;;6.00;2.93;;;3.40;89.70;;;3.60;64.49;98610.38;5049322;28;20071;-39
2021/12/12 09:51:26;;;;;;;4.97;3.30;;;3.60;90.60;;;3.68;63.86;98616.06;5047926;28;20048;-39
2021/12/12 09:54:15;;;;;;;5.70;3.37;;;3.70;88.80;;;3.70;64.04;98597.50;5024001;28;20061;-39
2021/12/12 09:56:51;;;;;;;4.63;2.87;;;3.70;88.70;;;3.75;64.22;98598.91;5047844;28;20367;-39
2021/12/12 09:59:52;;;;;;;4.67;3.07;;;3.80;89.30;;;3.80;64.28;98603.91;5047511;28;20051;-39
2021/12/12 10:02:55;;;;;;;3.63;2.53;;;3.90;88.60;;;3.81;63.47;98592.41;5048550;28;20048;-40
2021/12/12 10:05:50;;;;;;;9.30;3.87;;;3.90;88.70;;;3.88;62.90;98592.91;5048373;28;20247;-39
2021/12/12 10:09:04;;;;;;;5.10;3.30;;;3.90;87.70;;;3.89;63.29;98578.78;5046952;28;20075;-39
2021/12/12 10:11:44;;;;;;;4.93;3.40;;;3.90;87.00;;;3.92;63.34;98581.22;5047302;28;20048;-39
2021/12/12 10:14:39;;;;;;;5.10;2.80;;;3.90;87.30;;;3.87;63.27;98568.31;5048204;28;20049;-39
2021/12/12 10:17:30;;;;;;;6.17;2.93;;;3.90;86.50;;;3.92;63.73;98579.44;5047438;28;20048;-39
2021/12/12 10:20:09;;;;;;;5.20;3.03;;;3.90;87.50;;;3.93;63.48;98577.63;5049710;28;20335;-39
2021/12/12 10:23:10;;;;;;;5.17;2.83;;;4.00;86.90;;;4.00;63.54;98575.47;5048328;28;20048;-40
2021/12/12 10:26:08;;;;;;;4.30;3.03;;;3.90;86.50;;;4.03;62.90;98585.81;5046776;28;20057;-39
2021/12/12 10:28:52;;;;;;;5.73;3.10;;;4.10;86.50;;;4.10;63.25;98579.22;5046787;28;20059;-39
2021/12/12 10:31:47;;;;;;;4.85;3.10;;;4.10;86.90;;;4.14;62.76;98572.78;5047332;28;20052;-39
2021/12/12 10:34:23;;;;;;;5.10;2.97;;;4.10;85.60;;;4.20;63.24;98577.66;5047203;28;20359;-39
2021/12/12 10:37:25;;;;;;;5.47;2.73;;;4.20;85.70;;;4.23;63.31;98580.13;5044785;28;20049;-39
2021/12/12 10:40:12;;;;;;;4.73;2.47;;;4.20;84.30;;;4.26;62.22;98585.19;5007968;28;20054;-38
2021/12/12 10:42:49;;;;;;;4.57;2.93;;;4.20;83.30;;;4.32;63.14;98586.56;5005681;28;20057;-39
2021/12/12 10:45:25;;;;;;;3.80;2.97;;;4.30;85.00;;;4.42;63.62;98582.41;5010352;28;20390;-39
2021/12/12 10:48:01;;;;;;;4.67;2.57;;;4.40;85.20;;;4.47;62.92;98593.50;5007039;28;20060;-39
2021/12/12 10:51:00;;;;;;;4.93;2.90;;;4.40;84.10;;;4.48;63.16;98603.13;5007113;28;20065;-39
2021/12/12 10:53:37;;;;;;;3.63;2.40;;;4.50;82.70;;;4.54;63.39;98596.59;5008418;28;20070;-39
2021/12/12 10:56:30;;;;;;;4.03;2.60;;;4.50;84.30;;;4.60;63.91;98585.63;5007945;28;20080;-39
2021/12/12 10:59:18;;;;;;;8.50;3.90;;;4.60;84.60;;;4.61;62.70;98576.75;5007539;28;20054;-39
2021/12/12 11:01:54;;;;;;;5.07;3.07;;;4.50;84.50;;;4.65;63.02;98573.00;5006326;28;20468;-39
2021/12/12 11:04:42;;;;;;;7.93;3.30;;;4.50;84.10;;;4.72;63.13;98565.53;5006392;28;20064;-39
2021/12/12 11:07:38;;;;;;;5.90;3.97;;;4.60;83.80;;;4.73;62.37;98562.78;5007752;28;20360;-39
2021/12/12 11:10:20;;;;;;;4.67;3.03;;;4.70;81.90;;;4.76;62.98;98566.16;5008773;28;20054;-39
2021/12/12 11:12:55;;;;;;;5.67;2.97;;;4.70;82.60;;;4.75;63.23;98565.31;5008425;28;20266;-39
2021/12/12 11:15:56;;;;;;;5.57;3.23;;;4.70;83.40;;;4.81;62.51;98570.19;5007512;28;20047;-39
2021/12/12 11:18:34;;;;;;;7.13;3.70;;;4.80;83.10;;;4.88;63.21;98567.97;5009012;28;20577;-40
2021/12/12 11:21:16;;;;;;;5.07;3.43;;;4.80;83.30;;;4.95;63.08;98576.34;5006355;28;20053;-40
2021/12/12 11:23:56;;;;;;;4.23;3.10;;;4.90;83.50;;;5.00;63.55;98579.50;5006367;28;20046;-40
2021/12/12 11:26:40;;;;;;;5.77;3.13;;;4.90;83.00;;;5.04;63.23;98576.56;5006968;28;20128;-41
2021/12/12 11:29:18;;;;;;;6.43;4.03;;;4.90;83.10;;;5.09;62.73;98573.59;5008488;28;20068;-40
2021/12/12 11:31:58;;;;;;;7.60;3.63;;;5.00;83.40;;;5.13;62.98;98568.00;5008764;28;20095;-39
2021/12/12 11:34:50;;;;;;;6.57;3.43;;;5.10;83.30;;;5.20;62.91;98560.53;5006646;28;20068;-39
2021/12/12 11:37:56;;;;;;;6.27;3.00;;;5.10;82.90;;;5.25;62.39;98560.19;5007098;28;20042;-41
2021/12/12 11:40:33;;;;;;;7.57;3.43;;;5.20;82.70;;;5.26;63.22;98560.09;5007579;28;20221;-40